sensor_id;sensor_type;location;lat;lon;timestamp;pressure;altitude;pressure_sealevel;temperature;humidity
20656;BME280;10487;53.320;8.672;2022-08-02T00:00:09;101681.94;;;10.32;51.10
20656;BME280;10487;53.320;8.672;2022-08-02T00:02:37;101684.94;;;10.26;51.21
20656;BME280;10487;53.320;8.672;2022-08-02T00:05:04;101688.56;;;10.25;51.07
20656;BME280;10487;53.320;8.672;2022-08-02T00:07:31;101684.28;;;10.22;51.09
20656;BME280;10487;53.320;8.672;2022-08-02T00:10:04;101691.69;;;10.17;51.17
20656;BME280;10487;53.320;8.672;2022-08-02T00:12:31;101702.50;;;10.14;51.14
20656;BME280;10487;53.320;8.672;2022-08-02T00:14:58;101705.44;;;10.10;51.15
20656;BME280;10487;53.320;8.672;2022-08-02T00:17:24;101697.72;;;10.05;51.23
20656;BME280;10487;53.320;8.672;2022-08-02T00:19:51;101701.41;;;10.03;51.28
20656;BME280;10487;53.320;8.672;2022-08-02T00:22:17;101704.34;;;9.98;51.28
20656;BME280;10487;53.320;8.672;2022-08-02T00:24:44;101704.41;;;9.97;51.16
20656;BME280;10487;53.320;8.672;2022-08-02T00:27:11;101700.88;;;9.96;51.29
20656;BME280;10487;53.320;8.672;2022-08-02T00:29:37;101706.31;;;9.95;51.33
20656;BME280;10487;53.320;8.672;2022-08-02T00:32:19;101710.00;;;9.92;51.17
20656;BME280;10487;53.320;8.672;2022-08-02T00:34:45;101709.22;;;9.90;51.26
20656;BME280;10487;53.320;8.672;2022-08-02T00:37:12;101707.50;;;9.89;51.38
20656;BME280;10487;53.320;8.672;2022-08-02T00:39:39;101701.41;;;9.87;51.28
20656;BME280;10487;53.320;8.672;2022-08-02T00:42:08;101703.41;;;9.83;51.36
20656;BME280;10487;53.320;8.672;2022-08-02T00:44:36;101708.03;;;9.80;51.29
20656;BME280;10487;53.320;8.672;2022-08-02T00:47:02;101701.16;;;9.76;51.43
20656;BME280;10487;53.320;8.672;2022-08-02T00:49:29;101702.25;;;9.72;51.42
20656;BME280;10487;53.320;8.672;2022-08-02T00:51:58;101700.63;;;9.69;51.43
20656;BME280;10487;53.320;8.672;2022-08-02T00:54:25;101698.09;;;9.66;51.50
20656;BME280;10487;53.320;8.672;2022-08-02T00:56:52;101701.03;;;9.62;51.50
20656;BME280;10487;53.320;8.672;2022-08-02T00:59:18;101708.25;;;9.60;51.45
20656;BME280;10487;53.320;8.672;2022-08-02T01:01:45;101707.38;;;9.59;51.43
20656;BME280;10487;53.320;8.672;2022-08-02T01:04:22;101703.94;;;9.57;51.55
20656;BME280;10487;53.320;8.672;2022-08-02T01:07:00;101707.63;;;9.55;51.60
20656;BME280;10487;53.320;8.672;2022-08-02T01:09:43;101702.47;;;9.52;51.42
20656;BME280;10487;53.320;8.672;2022-08-02T01:12:10;101711.44;;;9.51;51.47
20656;BME280;10487;53.320;8.672;2022-08-02T01:14:41;101700.06;;;9.47;51.58
20656;BME280;10487;53.320;8.672;2022-08-02T01:23:30;101710.66;;;9.32;51.55
20656;BME280;10487;53.320;8.672;2022-08-02T01:26:16;101711.84;;;9.26;51.55
20656;BME280;10487;53.320;8.672;2022-08-02T01:31:45;101702.78;;;9.13;51.70
20656;BME280;10487;53.320;8.672;2022-08-02T01:36:51;101695.34;;;9.02;51.79
20656;BME280;10487;53.320;8.672;2022-08-02T01:39:22;101699.97;;;8.99;51.84
20656;BME280;10487;53.320;8.672;2022-08-02T01:41:57;101693.84;;;8.97;51.69
20656;BME280;10487;53.320;8.672;2022-08-02T01:44:27;101701.00;;;8.96;51.68
20656;BME280;10487;53.320;8.672;2022-08-02T01:47:03;101702.84;;;8.94;51.73
20656;BME280;10487;53.320;8.672;2022-08-02T01:49:32;101707.56;;;8.89;51.74
20656;BME280;10487;53.320;8.672;2022-08-02T01:52:02;101704.13;;;8.87;51.76
20656;BME280;10487;53.320;8.672;2022-08-02T01:55:03;101699.13;;;8.81;51.77
20656;BME280;10487;53.320;8.672;2022-08-02T01:57:36;101697.53;;;8.77;51.87
20656;BME280;10487;53.320;8.672;2022-08-02T02:00:08;101701.41;;;8.72;51.95
20656;BME280;10487;53.320;8.672;2022-08-02T02:02:38;101696.38;;;8.66;51.85
20656;BME280;10487;53.320;8.672;2022-08-02T02:05:11;101700.16;;;8.61;52.07
20656;BME280;10487;53.320;8.672;2022-08-02T02:07:41;101697.63;;;8.58;51.84
20656;BME280;10487;53.320;8.672;2022-08-02T02:10:12;101695.03;;;8.57;52.08
20656;BME280;10487;53.320;8.672;2022-08-02T02:12:41;101693.22;;;8.57;51.93
20656;BME280;10487;53.320;8.672;2022-08-02T02:15:11;101691.59;;;8.55;51.96
20656;BME280;10487;53.320;8.672;2022-08-02T02:17:44;101683.63;;;8.55;52.10
20656;BME280;10487;53.320;8.672;2022-08-02T02:20:31;101677.47;;;8.54;52.08
20656;BME280;10487;53.320;8.672;2022-08-02T02:22:58;101683.69;;;8.53;52.05
20656;BME280;10487;53.320;8.672;2022-08-02T02:25:28;101684.56;;;8.54;52.16
20656;BME280;10487;53.320;8.672;2022-08-02T02:28:10;101677.50;;;8.53;52.22
20656;BME280;10487;53.320;8.672;2022-08-02T02:30:39;101675.88;;;8.50;52.24
20656;BME280;10487;53.320;8.672;2022-08-02T02:33:07;101673.28;;;8.49;52.17
20656;BME280;10487;53.320;8.672;2022-08-02T02:35:36;101674.22;;;8.48;52.21
20656;BME280;10487;53.320;8.672;2022-08-02T02:38:07;101669.13;;;8.43;52.18
20656;BME280;10487;53.320;8.672;2022-08-02T02:40:36;101674.59;;;8.40;52.33
20656;BME280;10487;53.320;8.672;2022-08-02T02:43:05;101677.25;;;8.40;52.40
20656;BME280;10487;53.320;8.672;2022-08-02T02:45:35;101673.59;;;8.43;52.38
20656;BME280;10487;53.320;8.672;2022-08-02T02:48:04;101669.91;;;8.45;52.35
20656;BME280;10487;53.320;8.672;2022-08-02T02:50:32;101671.66;;;8.46;52.10
20656;BME280;10487;53.320;8.672;2022-08-02T02:53:01;101659.22;;;8.47;52.18
20656;BME280;10487;53.320;8.672;2022-08-02T02:55:29;101653.09;;;8.45;52.14
20656;BME280;10487;53.320;8.672;2022-08-02T02:57:56;101659.59;;;8.39;52.19
20656;BME280;10487;53.320;8.672;2022-08-02T03:00:24;101649.25;;;8.33;52.15
20656;BME280;10487;53.320;8.672;2022-08-02T03:03:10;101643.41;;;8.27;52.32
20656;BME280;10487;53.320;8.672;2022-08-02T03:05:38;101641.91;;;8.21;52.45
20656;BME280;10487;53.320;8.672;2022-08-02T03:08:05;101641.25;;;8.16;52.30
20656;BME280;10487;53.320;8.672;2022-08-02T03:10:32;101639.53;;;8.15;52.57
20656;BME280;10487;53.320;8.672;2022-08-02T03:12:59;101644.00;;;8.15;52.45
20656;BME280;10487;53.320;8.672;2022-08-02T03:15:26;101638.50;;;8.18;52.53
20656;BME280;10487;53.320;8.672;2022-08-02T03:17:54;101634.06;;;8.18;52.33
20656;BME280;10487;53.320;8.672;2022-08-02T03:20:21;101636.72;;;8.18;52.39
20656;BME280;10487;53.320;8.672;2022-08-02T03:22:51;101629.72;;;8.17;52.60
20656;BME280;10487;53.320;8.672;2022-08-02T03:25:18;101637.75;;;8.16;52.58
20656;BME280;10487;53.320;8.672;2022-08-02T03:27:45;101630.78;;;8.13;52.40
20656;BME280;10487;53.320;8.672;2022-08-02T03:30:13;101640.53;;;8.13;52.61
20656;BME280;10487;53.320;8.672;2022-08-02T03:32:42;101627.34;;;8.11;52.66
20656;BME280;10487;53.320;8.672;2022-08-02T03:35:11;101631.78;;;8.11;52.65
20656;BME280;10487;53.320;8.672;2022-08-02T03:37:40;101625.69;;;8.09;52.41
20656;BME280;10487;53.320;8.672;2022-08-02T03:40:08;101624.91;;;8.07;52.62
20656;BME280;10487;53.320;8.672;2022-08-02T03:42:37;101629.41;;;8.05;52.66
20656;BME280;10487;53.320;8.672;2022-08-02T03:45:07;101636.53;;;8.04;52.48
20656;BME280;10487;53.320;8.672;2022-08-02T03:47:36;101628.59;;;8.02;52.55
20656;BME280;10487;53.320;8.672;2022-08-02T03:50:04;101645.38;;;8.05;52.55
20656;BME280;10487;53.320;8.672;2022-08-02T03:52:32;101640.88;;;8.07;52.64
20656;BME280;10487;53.320;8.672;2022-08-02T03:54:59;101641.72;;;8.07;52.56
20656;BME280;10487;53.320;8.672;2022-08-02T03:57:25;101643.44;;;8.08;52.61
20656;BME280;10487;53.320;8.672;2022-08-02T03:59:52;101638.13;;;8.08;52.51
20656;BME280;10487;53.320;8.672;2022-08-02T04:02:19;101631.00;;;8.09;52.62
20656;BME280;10487;53.320;8.672;2022-08-02T04:04:45;101638.13;;;8.08;52.48
20656;BME280;10487;53.320;8.672;2022-08-02T04:07:12;101632.81;;;8.08;52.62
20656;BME280;10487;53.320;8.672;2022-08-02T04:09:38;101630.22;;;8.07;52.63
20656;BME280;10487;53.320;8.672;2022-08-02T04:12:05;101622.47;;;8.02;52.65
20656;BME280;10487;53.320;8.672;2022-08-02T04:14:32;101631.63;;;7.95;52.65
20656;BME280;10487;53.320;8.672;2022-08-02T04:17:06;101617.00;;;7.86;52.69
20656;BME280;10487;53.320;8.672;2022-08-02T04:19:39;101611.16;;;7.80;52.87
20656;BME280;10487;53.320;8.672;2022-08-02T04:22:15;101625.72;;;7.71;52.93
20656;BME280;10487;53.320;8.672;2022-08-02T04:24:46;101631.25;;;7.67;52.81
20656;BME280;10487;53.320;8.672;2022-08-02T04:27:15;101625.44;;;7.59;52.95
20656;BME280;10487;53.320;8.672;2022-08-02T04:30:04;101624.94;;;7.51;52.99
20656;BME280;10487;53.320;8.672;2022-08-02T04:32:31;101629.47;;;7.49;53.03
20656;BME280;10487;53.320;8.672;2022-08-02T04:34:58;101633.00;;;7.49;53.14
20656;BME280;10487;53.320;8.672;2022-08-02T04:37:45;101625.81;;;7.51;53.25
20656;BME280;10487;53.320;8.672;2022-08-02T04:40:32;101622.22;;;7.52;52.98
20656;BME280;10487;53.320;8.672;2022-08-02T04:42:58;101625.75;;;7.53;53.09
20656;BME280;10487;53.320;8.672;2022-08-02T04:45:25;101624.94;;;7.51;53.22
20656;BME280;10487;53.320;8.672;2022-08-02T04:47:52;101623.16;;;7.51;53.41
20656;BME280;10487;53.320;8.672;2022-08-02T04:50:29;101611.75;;;7.49;53.15
20656;BME280;10487;53.320;8.672;2022-08-02T04:52:56;101623.25;;;7.50;53.28
20656;BME280;10487;53.320;8.672;2022-08-02T04:55:22;101622.16;;;7.54;53.36
20656;BME280;10487;53.320;8.672;2022-08-02T04:57:54;101626.41;;;7.58;53.33
20656;BME280;10487;53.320;8.672;2022-08-02T05:00:21;101621.66;;;7.64;53.49
20656;BME280;10487;53.320;8.672;2022-08-02T05:02:48;101636.50;;;7.68;53.50
20656;BME280;10487;53.320;8.672;2022-08-02T05:05:15;101639.56;;;7.78;53.34
20656;BME280;10487;53.320;8.672;2022-08-02T05:07:42;101632.09;;;7.86;53.55
20656;BME280;10487;53.320;8.672;2022-08-02T05:10:09;101642.25;;;7.95;53.34
20656;BME280;10487;53.320;8.672;2022-08-02T05:12:37;101638.41;;;8.02;53.21
20656;BME280;10487;53.320;8.672;2022-08-02T05:15:04;101640.63;;;8.11;53.15
20656;BME280;10487;53.320;8.672;2022-08-02T05:17:31;101630.41;;;8.21;53.21
20656;BME280;10487;53.320;8.672;2022-08-02T05:19:58;101634.47;;;8.28;53.14
20656;BME280;10487;53.320;8.672;2022-08-02T05:22:24;101636.97;;;8.48;53.66
20656;BME280;10487;53.320;8.672;2022-08-02T05:24:51;101626.47;;;8.96;53.78
20656;BME280;10487;53.320;8.672;2022-08-02T05:27:18;101621.00;;;9.48;53.76
20656;BME280;10487;53.320;8.672;2022-08-02T05:29:47;101629.94;;;9.93;53.90
20656;BME280;10487;53.320;8.672;2022-08-02T05:32:22;101635.38;;;10.37;53.97
20656;BME280;10487;53.320;8.672;2022-08-02T05:34:51;101629.09;;;10.68;53.75
20656;BME280;10487;53.320;8.672;2022-08-02T05:37:18;101637.22;;;10.81;53.63
20656;BME280;10487;53.320;8.672;2022-08-02T05:39:45;101634.19;;;10.87;53.71
20656;BME280;10487;53.320;8.672;2022-08-02T05:42:21;101638.47;;;10.89;53.72
20656;BME280;10487;53.320;8.672;2022-08-02T05:44:48;101652.47;;;10.93;53.58
20656;BME280;10487;53.320;8.672;2022-08-02T05:47:15;101651.38;;;10.97;53.69
20656;BME280;10487;53.320;8.672;2022-08-02T05:49:41;101644.97;;;10.99;53.64
20656;BME280;10487;53.320;8.672;2022-08-02T05:52:18;101658.22;;;11.01;53.58
20656;BME280;10487;53.320;8.672;2022-08-02T05:54:59;101655.47;;;11.02;53.58
20656;BME280;10487;53.320;8.672;2022-08-02T05:57:39;101654.44;;;11.05;53.60
20656;BME280;10487;53.320;8.672;2022-08-02T06:00:13;101639.16;;;11.07;53.62
20656;BME280;10487;53.320;8.672;2022-08-02T06:05:10;101648.63;;;11.12;53.59
20656;BME280;10487;53.320;8.672;2022-08-02T06:07:41;101644.69;;;11.18;53.68
20656;BME280;10487;53.320;8.672;2022-08-02T06:10:08;101654.03;;;11.25;53.64
20656;BME280;10487;53.320;8.672;2022-08-02T06:13:25;101658.06;;;11.32;53.69
20656;BME280;10487;53.320;8.672;2022-08-02T06:15:27;101645.91;;;11.41;53.52
20656;BME280;10487;53.320;8.672;2022-08-02T06:17:54;101636.47;;;11.49;53.66
20656;BME280;10487;53.320;8.672;2022-08-02T06:20:23;101628.09;;;11.55;53.52
20656;BME280;10487;53.320;8.672;2022-08-02T06:22:50;101620.44;;;11.63;53.64
20656;BME280;10487;53.320;8.672;2022-08-02T06:25:18;101619.09;;;11.70;53.53
20656;BME280;10487;53.320;8.672;2022-08-02T06:28:06;101608.88;;;11.77;53.63
20656;BME280;10487;53.320;8.672;2022-08-02T06:30:36;101605.97;;;11.80;53.72
20656;BME280;10487;53.320;8.672;2022-08-02T06:33:03;101596.69;;;11.86;53.77
20656;BME280;10487;53.320;8.672;2022-08-02T06:35:42;101589.13;;;11.92;53.62
20656;BME280;10487;53.320;8.672;2022-08-02T06:38:17;101593.97;;;12.00;53.52
20656;BME280;10487;53.320;8.672;2022-08-02T06:40:47;101596.13;;;12.07;53.82
20656;BME280;10487;53.320;8.672;2022-08-02T06:43:22;101600.97;;;12.15;53.64
20656;BME280;10487;53.320;8.672;2022-08-02T06:45:51;101604.13;;;12.21;53.51
20656;BME280;10487;53.320;8.672;2022-08-02T06:48:18;101602.63;;;12.30;53.57
20656;BME280;10487;53.320;8.672;2022-08-02T06:50:45;101595.88;;;12.37;53.72
20656;BME280;10487;53.320;8.672;2022-08-02T06:53:11;101599.09;;;12.42;53.52
20656;BME280;10487;53.320;8.672;2022-08-02T06:55:38;101593.34;;;12.48;53.74
20656;BME280;10487;53.320;8.672;2022-08-02T06:58:10;101601.97;;;12.53;53.74
20656;BME280;10487;53.320;8.672;2022-08-02T07:00:37;101614.91;;;12.59;53.48
20656;BME280;10487;53.320;8.672;2022-08-02T07:03:04;101613.56;;;12.66;53.65
20656;BME280;10487;53.320;8.672;2022-08-02T07:05:31;101617.50;;;12.73;53.68
20656;BME280;10487;53.320;8.672;2022-08-02T07:07:58;101619.75;;;12.79;53.63
20656;BME280;10487;53.320;8.672;2022-08-02T07:10:24;101616.66;;;12.85;53.68
20656;BME280;10487;53.320;8.672;2022-08-02T07:12:51;101618.81;;;12.93;53.49
20656;BME280;10487;53.320;8.672;2022-08-02T07:15:18;101611.19;;;12.99;53.36
20656;BME280;10487;53.320;8.672;2022-08-02T07:17:44;101600.91;;;13.06;53.38
20656;BME280;10487;53.320;8.672;2022-08-02T07:20:11;101597.66;;;13.13;53.48
20656;BME280;10487;53.320;8.672;2022-08-02T07:22:39;101588.34;;;13.19;53.38
20656;BME280;10487;53.320;8.672;2022-08-02T07:25:06;101593.91;;;13.29;53.27
20656;BME280;10487;53.320;8.672;2022-08-02T07:27:34;101592.50;;;13.36;53.42
20656;BME280;10487;53.320;8.672;2022-08-02T07:30:01;101584.00;;;13.42;53.33
20656;BME280;10487;53.320;8.672;2022-08-02T07:32:30;101588.84;;;13.49;53.51
20656;BME280;10487;53.320;8.672;2022-08-02T07:34:58;101583.66;;;13.59;53.46
20656;BME280;10487;53.320;8.672;2022-08-02T07:37:30;101572.38;;;13.66;53.45
20656;BME280;10487;53.320;8.672;2022-08-02T07:40:17;101570.00;;;13.74;53.25
20656;BME280;10487;53.320;8.672;2022-08-02T07:42:50;101565.75;;;13.83;53.16
20656;BME280;10487;53.320;8.672;2022-08-02T07:45:22;101558.00;;;13.91;53.20
20656;BME280;10487;53.320;8.672;2022-08-02T07:47:49;101569.16;;;13.98;53.11
20656;BME280;10487;53.320;8.672;2022-08-02T07:50:18;101564.91;;;14.06;53.04
20656;BME280;10487;53.320;8.672;2022-08-02T07:52:46;101565.19;;;14.14;53.22
20656;BME280;10487;53.320;8.672;2022-08-02T07:55:14;101564.47;;;14.23;53.32
20656;BME280;10487;53.320;8.672;2022-08-02T07:57:41;101560.25;;;14.32;52.99
20656;BME280;10487;53.320;8.672;2022-08-02T08:00:13;101558.84;;;14.39;53.18
20656;BME280;10487;53.320;8.672;2022-08-02T08:02:41;101552.97;;;14.45;53.05
20656;BME280;10487;53.320;8.672;2022-08-02T08:05:08;101564.97;;;14.52;52.98
20656;BME280;10487;53.320;8.672;2022-08-02T08:07:35;101564.38;;;14.60;52.92
20656;BME280;10487;53.320;8.672;2022-08-02T08:10:03;101567.31;;;14.68;52.94
20656;BME280;10487;53.320;8.672;2022-08-02T08:12:30;101569.53;;;14.74;52.90
20656;BME280;10487;53.320;8.672;2022-08-02T08:14:57;101568.06;;;14.81;52.91
20656;BME280;10487;53.320;8.672;2022-08-02T08:17:24;101562.81;;;14.90;52.90
20656;BME280;10487;53.320;8.672;2022-08-02T08:19:50;101555.75;;;15.00;53.16
20656;BME280;10487;53.320;8.672;2022-08-02T08:22:19;101550.25;;;15.13;53.19
20656;BME280;10487;53.320;8.672;2022-08-02T08:24:47;101544.03;;;15.24;53.31
20656;BME280;10487;53.320;8.672;2022-08-02T08:27:17;101542.19;;;15.35;53.24
20656;BME280;10487;53.320;8.672;2022-08-02T08:29:45;101542.28;;;15.45;53.15
20656;BME280;10487;53.320;8.672;2022-08-02T08:32:12;101533.34;;;15.55;53.16
20656;BME280;10487;53.320;8.672;2022-08-02T08:34:46;101532.56;;;15.64;53.09
20656;BME280;10487;53.320;8.672;2022-08-02T08:37:14;101533.06;;;15.70;53.01
20656;BME280;10487;53.320;8.672;2022-08-02T08:39:47;101536.09;;;15.76;52.87
20656;BME280;10487;53.320;8.672;2022-08-02T08:42:27;101533.75;;;15.83;52.82
20656;BME280;10487;53.320;8.672;2022-08-02T08:44:55;101543.00;;;15.90;52.82
20656;BME280;10487;53.320;8.672;2022-08-02T08:47:31;101533.44;;;15.97;52.88
20656;BME280;10487;53.320;8.672;2022-08-02T08:50:08;101523.78;;;16.05;53.03
20656;BME280;10487;53.320;8.672;2022-08-02T08:52:51;101531.22;;;16.13;52.82
20656;BME280;10487;53.320;8.672;2022-08-02T08:55:22;101534.94;;;16.21;52.68
20656;BME280;10487;53.320;8.672;2022-08-02T08:57:50;101538.84;;;16.28;52.42
20656;BME280;10487;53.320;8.672;2022-08-02T09:00:20;101530.22;;;16.35;52.12
20656;BME280;10487;53.320;8.672;2022-08-02T09:02:47;101526.16;;;16.40;52.50
20656;BME280;10487;53.320;8.672;2022-08-02T09:05:16;101522.91;;;16.46;52.52
20656;BME280;10487;53.320;8.672;2022-08-02T09:07:46;101531.47;;;16.51;52.41
20656;BME280;10487;53.320;8.672;2022-08-02T09:10:42;101525.56;;;16.57;52.37
20656;BME280;10487;53.320;8.672;2022-08-02T09:16:01;101512.00;;;16.68;52.11
20656;BME280;10487;53.320;8.672;2022-08-02T09:18:44;101509.88;;;16.72;52.03
20656;BME280;10487;53.320;8.672;2022-08-02T09:21:14;101519.28;;;16.77;51.85
20656;BME280;10487;53.320;8.672;2022-08-02T09:23:44;101519.75;;;16.82;51.90
20656;BME280;10487;53.320;8.672;2022-08-02T09:26:18;101507.59;;;16.88;51.88
20656;BME280;10487;53.320;8.672;2022-08-02T09:28:48;101516.13;;;16.93;51.40
20656;BME280;10487;53.320;8.672;2022-08-02T09:31:20;101520.09;;;16.99;51.29
20656;BME280;10487;53.320;8.672;2022-08-02T09:33:55;101515.16;;;17.04;51.09
20656;BME280;10487;53.320;8.672;2022-08-02T09:36:23;101525.41;;;17.10;51.47
20656;BME280;10487;53.320;8.672;2022-08-02T09:39:01;101522.91;;;17.18;51.41
20656;BME280;10487;53.320;8.672;2022-08-02T09:41:31;101514.94;;;17.26;50.94
20656;BME280;10487;53.320;8.672;2022-08-02T09:43:59;101505.19;;;17.34;51.03
20656;BME280;10487;53.320;8.672;2022-08-02T09:46:40;101509.47;;;17.46;50.95
20656;BME280;10487;53.320;8.672;2022-08-02T09:51:38;101505.25;;;17.73;50.79
20656;BME280;10487;53.320;8.672;2022-08-02T09:54:08;101508.41;;;17.87;50.71
20656;BME280;10487;53.320;8.672;2022-08-02T09:56:43;101511.22;;;18.05;50.80
20656;BME280;10487;53.320;8.672;2022-08-02T09:59:11;101523.72;;;18.25;50.32
20656;BME280;10487;53.320;8.672;2022-08-02T10:01:39;101525.44;;;18.45;50.24
20656;BME280;10487;53.320;8.672;2022-08-02T10:04:20;101522.69;;;18.64;50.23
20656;BME280;10487;53.320;8.672;2022-08-02T10:06:51;101524.91;;;18.88;49.93
20656;BME280;10487;53.320;8.672;2022-08-02T10:09:19;101522.13;;;19.07;49.85
20656;BME280;10487;53.320;8.672;2022-08-02T10:11:46;101525.06;;;19.23;49.94
20656;BME280;10487;53.320;8.672;2022-08-02T10:14:13;101515.44;;;19.38;49.94
20656;BME280;10487;53.320;8.672;2022-08-02T10:16:42;101517.63;;;19.53;49.97
20656;BME280;10487;53.320;8.672;2022-08-02T10:19:09;101510.66;;;19.68;49.65
20656;BME280;10487;53.320;8.672;2022-08-02T10:24:17;101508.00;;;20.03;49.61
20656;BME280;10487;53.320;8.672;2022-08-02T10:26:47;101502.69;;;20.19;49.30
20656;BME280;10487;53.320;8.672;2022-08-02T10:29:17;101509.25;;;20.34;49.26
20656;BME280;10487;53.320;8.672;2022-08-02T10:34:55;101502.06;;;20.68;49.09
20656;BME280;10487;53.320;8.672;2022-08-02T10:37:44;101497.56;;;20.85;49.08
20656;BME280;10487;53.320;8.672;2022-08-02T10:40:13;101488.84;;;20.99;48.76
20656;BME280;10487;53.320;8.672;2022-08-02T10:42:51;101499.94;;;21.14;48.77
20656;BME280;10487;53.320;8.672;2022-08-02T10:45:20;101495.91;;;21.26;48.75
20656;BME280;10487;53.320;8.672;2022-08-02T10:53:27;101488.84;;;21.57;48.57
20656;BME280;10487;53.320;8.672;2022-08-02T10:55:58;101486.84;;;21.67;48.06
20656;BME280;10487;53.320;8.672;2022-08-02T10:58:26;101485.53;;;21.79;48.15
20656;BME280;10487;53.320;8.672;2022-08-02T11:00:56;101479.44;;;21.93;47.99
20656;BME280;10487;53.320;8.672;2022-08-02T11:03:38;101463.13;;;22.10;48.17
20656;BME280;10487;53.320;8.672;2022-08-02T11:06:13;101458.22;;;22.21;47.82
20656;BME280;10487;53.320;8.672;2022-08-02T11:09:28;101458.16;;;22.37;47.59
20656;BME280;10487;53.320;8.672;2022-08-02T11:12:10;101467.88;;;22.48;47.62
20656;BME280;10487;53.320;8.672;2022-08-02T11:14:44;101459.88;;;22.54;47.34
20656;BME280;10487;53.320;8.672;2022-08-02T11:17:15;101461.03;;;22.60;47.32
20656;BME280;10487;53.320;8.672;2022-08-02T11:22:34;101461.69;;;22.70;47.49
20656;BME280;10487;53.320;8.672;2022-08-02T11:25:34;101448.22;;;22.77;47.50
20656;BME280;10487;53.320;8.672;2022-08-02T11:28:21;101446.50;;;22.84;47.38
20656;BME280;10487;53.320;8.672;2022-08-02T11:31:00;101448.00;;;22.94;47.03
20656;BME280;10487;53.320;8.672;2022-08-02T11:33:32;101457.16;;;23.01;46.90
20656;BME280;10487;53.320;8.672;2022-08-02T11:36:01;101446.78;;;23.05;46.57
20656;BME280;10487;53.320;8.672;2022-08-02T11:38:28;101433.50;;;23.10;46.93
20656;BME280;10487;53.320;8.672;2022-08-02T11:40:55;101432.41;;;23.19;46.46
20656;BME280;10487;53.320;8.672;2022-08-02T11:43:24;101436.63;;;23.30;46.85
20656;BME280;10487;53.320;8.672;2022-08-02T11:45:54;101419.84;;;23.41;46.74
20656;BME280;10487;53.320;8.672;2022-08-02T11:48:33;101420.47;;;23.51;46.40
20656;BME280;10487;53.320;8.672;2022-08-02T11:53:53;101426.19;;;23.64;46.37
20656;BME280;10487;53.320;8.672;2022-08-02T11:56:30;101432.28;;;23.66;46.41
20656;BME280;10487;53.320;8.672;2022-08-02T11:59:05;101426.34;;;23.70;46.14
20656;BME280;10487;53.320;8.672;2022-08-02T12:01:35;101422.84;;;23.76;46.26
20656;BME280;10487;53.320;8.672;2022-08-02T12:04:15;101414.97;;;23.81;45.85
20656;BME280;10487;53.320;8.672;2022-08-02T12:06:52;101411.91;;;23.84;45.91
20656;BME280;10487;53.320;8.672;2022-08-02T12:09:21;101417.81;;;23.88;45.84
20656;BME280;10487;53.320;8.672;2022-08-02T12:11:48;101416.78;;;23.89;45.79
20656;BME280;10487;53.320;8.672;2022-08-02T12:14:17;101417.09;;;23.94;46.16
20656;BME280;10487;53.320;8.672;2022-08-02T12:16:44;101411.72;;;24.01;45.78
20656;BME280;10487;53.320;8.672;2022-08-02T12:19:29;101411.16;;;24.05;45.82
20656;BME280;10487;53.320;8.672;2022-08-02T12:22:13;101409.78;;;24.09;45.56
20656;BME280;10487;53.320;8.672;2022-08-02T12:24:50;101400.41;;;24.12;45.71
20656;BME280;10487;53.320;8.672;2022-08-02T12:27:35;101397.84;;;24.10;45.57
20656;BME280;10487;53.320;8.672;2022-08-02T12:30:14;101395.09;;;24.10;45.16
20656;BME280;10487;53.320;8.672;2022-08-02T12:32:52;101397.84;;;24.10;45.24
20656;BME280;10487;53.320;8.672;2022-08-02T12:35:19;101400.56;;;24.10;45.32
20656;BME280;10487;53.320;8.672;2022-08-02T12:37:52;101395.31;;;24.09;44.88
20656;BME280;10487;53.320;8.672;2022-08-02T12:40:25;101381.47;;;24.10;45.45
20656;BME280;10487;53.320;8.672;2022-08-02T12:43:00;101384.19;;;24.10;45.22
20656;BME280;10487;53.320;8.672;2022-08-02T12:45:29;101389.66;;;24.10;45.28
20656;BME280;10487;53.320;8.672;2022-08-02T12:48:08;101382.16;;;24.12;44.85
20656;BME280;10487;53.320;8.672;2022-08-02T12:50:35;101388.59;;;24.19;44.95
20656;BME280;10487;53.320;8.672;2022-08-02T12:53:16;101393.28;;;24.25;44.78
20656;BME280;10487;53.320;8.672;2022-08-02T12:55:48;101393.13;;;24.27;44.92
20656;BME280;10487;53.320;8.672;2022-08-02T12:58:29;101391.88;;;24.29;44.95
20656;BME280;10487;53.320;8.672;2022-08-02T13:01:00;101386.25;;;24.31;44.48
20656;BME280;10487;53.320;8.672;2022-08-02T13:03:28;101393.56;;;24.30;44.97
20656;BME280;10487;53.320;8.672;2022-08-02T13:06:15;101382.66;;;24.30;44.38
20656;BME280;10487;53.320;8.672;2022-08-02T13:09:11;101387.75;;;24.33;44.29
20656;BME280;10487;53.320;8.672;2022-08-02T13:11:38;101393.84;;;24.35;44.27
20656;BME280;10487;53.320;8.672;2022-08-02T13:14:09;101384.00;;;24.34;44.46
20656;BME280;10487;53.320;8.672;2022-08-02T13:16:35;101376.47;;;24.36;44.25
20656;BME280;10487;53.320;8.672;2022-08-02T13:19:02;101381.72;;;24.38;44.15
20656;BME280;10487;53.320;8.672;2022-08-02T13:21:29;101370.94;;;24.44;44.59
20656;BME280;10487;53.320;8.672;2022-08-02T13:24:15;101377.97;;;24.54;44.57
20656;BME280;10487;53.320;8.672;2022-08-02T13:27:02;101367.81;;;24.62;44.52
20656;BME280;10487;53.320;8.672;2022-08-02T13:29:33;101360.72;;;24.68;43.95
20656;BME280;10487;53.320;8.672;2022-08-02T13:31:59;101352.25;;;24.77;44.08
20656;BME280;10487;53.320;8.672;2022-08-02T13:34:26;101361.41;;;24.84;44.17
20656;BME280;10487;53.320;8.672;2022-08-02T13:36:53;101363.72;;;24.87;44.24
20656;BME280;10487;53.320;8.672;2022-08-02T13:39:19;101357.44;;;24.87;44.20
20656;BME280;10487;53.320;8.672;2022-08-02T13:41:46;101356.59;;;24.86;44.07
20656;BME280;10487;53.320;8.672;2022-08-02T13:44:13;101357.91;;;24.90;43.63
20656;BME280;10487;53.320;8.672;2022-08-02T13:46:39;101361.09;;;24.94;43.93
20656;BME280;10487;53.320;8.672;2022-08-02T13:49:11;101359.00;;;24.96;44.11